Time;durP1;ratioP1;P1;durP2;ratioP2;P2;SDS_P1;SDS_P2;PMS_P1;PMS_P2;Temp;Humidity;BMP_temperature;BMP_pressure;BME280_temperature;BME280_humidity;BME280_pressure;Samples;Min_cycle;Max_cycle;Signal;HPM_P1;HPM_P2
2021/11/27 00:01:34;;;;;;;;;;;;;;;-1.65;60.97;92523.53;5058873;28;20429;-61
2021/11/27 00:04:00;;;;;;;;;;;;;;;-0.68;59.65;92518.34;5058268;28;19973;-60
2021/11/27 00:06:25;;;;;;;;;;;;;;;-1.27;60.35;92518.25;5049986;28;20043;-61
2021/11/27 00:08:50;;;;;;;;;;;;;;;-0.88;59.61;92505.88;5058907;28;20688;-61
2021/11/27 00:11:15;;;;;;;;;;;;;;;-0.34;56.12;92508.25;5058283;28;20004;-60
2021/11/27 00:13:41;;;;;;;;;;;;;;;-0.39;57.36;92505.34;5056416;28;19996;-61
2021/11/27 00:16:06;;;;;;;;;;;;;;;-0.12;61.85;92503.81;5058856;28;20178;-62
2021/11/27 00:18:31;;;;;;;;;;;;;;;-0.13;61.92;92496.16;5058711;28;20032;-62
2021/11/27 00:20:58;;;;;;;;;;;;;;;-1.87;58.94;92515.59;5058542;28;20059;-61
2021/11/27 00:23:24;;;;;;;;;;;;;;;-0.20;61.79;92494.28;5051178;28;20165;-61
2021/11/27 00:25:49;;;;;;;;;;;;;;;0.22;59.06;92493.59;5059382;28;19981;-61
2021/11/27 00:28:14;;;;;;;;;;;;;;;-0.60;59.60;92501.75;5064170;28;20001;-59
2021/11/27 00:30:40;;;;;;;;;;;;;;;-1.17;64.28;92502.28;5055519;28;19981;-64
2021/11/27 00:33:06;;;;;;;;;;;;;;;-0.10;61.44;92493.16;5061636;28;19969;-61
2021/11/27 00:35:31;;;;;;;;;;;;;;;-0.25;57.26;92482.75;5062129;28;19961;-63
2021/11/27 00:37:57;;;;;;;;;;;;;;;-1.05;61.43;92500.00;5061048;28;20106;-60
2021/11/27 00:40:22;;;;;;;;;;;;;;;-0.52;58.32;92490.34;5058504;28;20014;-60
2021/11/27 00:42:47;;;;;;;;;;;;;;;-1.02;56.72;92497.03;5061384;28;20679;-61
2021/11/27 00:45:13;;;;;;;;;;;;;;;-0.88;64.53;92492.81;5059714;28;19991;-60
2021/11/27 00:47:42;;;;;;;;;;;;;;;0.01;61.45;92487.41;5062151;28;20425;-60
2021/11/27 00:50:08;;;;;;;;;;;;;;;-0.58;54.52;92494.53;5061167;28;19985;-60
2021/11/27 00:52:33;;;;;;;;;;;;;;;0.07;62.04;92486.63;5052173;28;19988;-59
2021/11/27 00:54:58;;;;;;;;;;;;;;;0.44;56.84;92483.03;5060740;28;19996;-61
2021/11/27 00:57:24;;;;;;;;;;;;;;;0.73;60.38;92483.81;5061786;28;20041;-59
2021/11/27 00:59:49;;;;;;;;;;;;;;;0.03;60.93;92485.41;5052356;28;19969;-60
2021/11/27 01:02:14;;;;;;;;;;;;;;;-0.47;62.35;92483.56;5061041;28;20503;-61
2021/11/27 01:04:39;;;;;;;;;;;;;;;-0.06;58.61;92479.50;5060158;28;20059;-59
2021/11/27 01:07:06;;;;;;;;;;;;;;;0.24;59.30;92475.09;5058529;28;20004;-59
2021/11/27 01:09:31;;;;;;;;;;;;;;;0.47;60.32;92474.81;5060108;28;20241;-60
2021/11/27 01:11:57;;;;;;;;;;;;;;;-0.22;59.08;92472.75;5061199;28;20001;-61
2021/11/27 01:14:23;;;;;;;;;;;;;;;-0.24;61.44;92485.19;5060121;28;20050;-60
2021/11/27 01:16:49;;;;;;;;;;;;;;;0.09;62.47;92475.97;5061247;28;19973;-60
2021/11/27 01:19:14;;;;;;;;;;;;;;;0.48;55.84;92471.19;5059834;28;19989;-61
2021/11/27 01:21:40;;;;;;;;;;;;;;;-1.52;56.41;92479.34;5060940;28;19985;-59
2021/11/27 01:24:06;;;;;;;;;;;;;;;-0.26;60.22;92475.91;5061546;28;19969;-61
2021/11/27 01:26:32;;;;;;;;;;;;;;;0.09;54.33;92468.13;5062369;28;20023;-60
2021/11/27 01:28:57;;;;;;;;;;;;;;;-0.57;63.03;92475.25;5050208;28;19985;-61
2021/11/27 01:31:22;;;;;;;;;;;;;;;-0.84;55.80;92470.53;5064722;28;20060;-60
2021/11/27 01:33:48;;;;;;;;;;;;;;;0.01;55.25;92465.66;5065962;28;20079;-60
2021/11/27 01:36:13;;;;;;;;;;;;;;;0.20;56.87;92461.56;5066102;28;20491;-61
2021/11/27 01:38:38;;;;;;;;;;;;;;;-0.65;56.55;92475.38;5065248;28;20357;-61
2021/11/27 01:41:04;;;;;;;;;;;;;;;0.08;59.53;92471.75;5065357;28;20067;-59
2021/11/27 01:43:29;;;;;;;;;;;;;;;0.28;54.32;92465.84;5066059;28;20007;-61
2021/11/27 01:45:54;;;;;;;;;;;;;;;0.23;59.74;92471.66;5065386;28;19985;-59
2021/11/27 01:48:20;;;;;;;;;;;;;;;0.53;55.40;92460.97;5065799;28;19992;-61
2021/11/27 01:50:50;;;;;;;;;;;;;;;0.72;52.12;92461.25;5065703;28;20536;-61
2021/11/27 01:53:16;;;;;;;;;;;;;;;0.46;54.48;92457.50;5055270;28;20485;-60
2021/11/27 01:55:41;;;;;;;;;;;;;;;-0.01;53.45;92465.84;5065318;28;20330;-60
2021/11/27 01:58:06;;;;;;;;;;;;;;;-0.70;60.75;92465.47;5056005;28;20024;-60
2021/11/27 02:00:33;;;;;;;;;;;;;;;-0.22;57.70;92459.66;5045299;28;19965;-60
2021/11/27 02:02:58;;;;;;;;;;;;;;;-0.15;60.88;92458.91;5044836;28;20395;-61
2021/11/27 02:05:23;;;;;;;;;;;;;;;-0.98;63.32;92466.16;5044511;28;20220;-61
2021/11/27 02:07:48;;;;;;;;;;;;;;;-0.88;59.72;92468.50;5044904;28;19999;-62
2021/11/27 02:10:14;;;;;;;;;;;;;;;-1.36;63.65;92464.50;5044725;28;20369;-60
2021/11/27 02:12:39;;;;;;;;;;;;;;;-0.70;63.29;92453.19;5045113;28;19981;-61
2021/11/27 02:15:04;;;;;;;;;;;;;;;-2.62;61.20;92458.88;5044349;28;19993;-61
2021/11/27 02:17:30;;;;;;;;;;;;;;;-0.82;61.66;92446.84;5044093;28;20079;-61
2021/11/27 02:19:55;;;;;;;;;;;;;;;-0.68;61.27;92447.00;5045010;28;20224;-61
2021/11/27 02:22:20;;;;;;;;;;;;;;;-1.29;59.91;92457.56;5054829;28;20164;-61
2021/11/27 02:24:46;;;;;;;;;;;;;;;-0.91;58.43;92458.41;5065346;28;20448;-61
2021/11/27 02:27:11;;;;;;;;;;;;;;;-0.51;62.34;92450.19;5060465;28;19999;-61
2021/11/27 02:29:36;;;;;;;;;;;;;;;-0.58;63.29;92442.25;5054606;28;19989;-62
2021/11/27 02:32:02;;;;;;;;;;;;;;;-1.05;64.82;92460.84;5064360;28;20067;-61
2021/11/27 02:34:27;;;;;;;;;;;;;;;-0.21;57.60;92450.81;5064687;28;19996;-62
2021/11/27 02:36:54;;;;;;;;;;;;;;;0.21;57.71;92439.66;5064286;28;20071;-62
2021/11/27 02:39:19;;;;;;;;;;;;;;;0.65;59.32;92442.09;5064239;28;20269;-62
2021/11/27 02:41:44;;;;;;;;;;;;;;;0.64;59.05;92437.84;5063996;28;19995;-61
2021/11/27 02:44:10;;;;;;;;;;;;;;;0.50;58.38;92437.78;5053590;28;19973;-61
2021/11/27 02:46:36;;;;;;;;;;;;;;;-2.24;59.13;92456.28;5060742;28;19993;-59
2021/11/27 02:49:01;;;;;;;;;;;;;;;-1.81;59.74;92459.28;5065047;28;20207;-58
2021/11/27 02:51:27;;;;;;;;;;;;;;;-3.37;66.02;92466.34;5064402;28;20516;-60
2021/11/27 02:53:52;;;;;;;;;;;;;;;-0.86;65.53;92459.50;5051026;28;19989;-60
2021/11/27 02:56:17;;;;;;;;;;;;;;;-0.08;55.51;92451.91;5064142;28;19969;-61
2021/11/27 02:58:42;;;;;;;;;;;;;;;0.38;58.31;92449.81;5057502;28;20493;-60
2021/11/27 03:01:08;;;;;;;;;;;;;;;-0.66;55.51;92458.06;5060123;28;20014;-61
2021/11/27 03:03:34;;;;;;;;;;;;;;;-0.86;64.62;92469.94;5064588;28;20524;-60
2021/11/27 03:05:59;;;;;;;;;;;;;;;0.02;58.54;92452.41;5063484;28;19980;-60
2021/11/27 03:08:25;;;;;;;;;;;;;;;0.10;58.03;92458.50;5064128;28;20452;-60
2021/11/27 03:10:50;;;;;;;;;;;;;;;0.53;61.85;92450.50;5063413;28;20000;-60
2021/11/27 03:13:15;;;;;;;;;;;;;;;0.46;61.46;92447.03;5063886;28;19965;-60
2021/11/27 03:15:41;;;;;;;;;;;;;;;-0.55;60.76;92448.94;5049111;28;19973;-60
2021/11/27 03:18:10;;;;;;;;;;;;;;;-0.74;56.68;92446.72;5063613;28;19992;-61
2021/11/27 03:20:35;;;;;;;;;;;;;;;-1.28;64.92;92450.56;5063881;28;20426;-60
2021/11/27 03:23:00;;;;;;;;;;;;;;;-0.32;60.34;92440.88;5063141;28;20304;-59
2021/11/27 03:25:25;;;;;;;;;;;;;;;0.17;56.69;92438.41;5063451;28;19995;-61
2021/11/27 03:27:51;;;;;;;;;;;;;;;0.34;55.35;92436.28;5063496;28;20010;-60
2021/11/27 03:30:17;;;;;;;;;;;;;;;0.19;54.67;92431.16;5063456;28;19992;-61
2021/11/27 03:32:42;;;;;;;;;;;;;;;0.36;55.31;92436.09;5063857;28;20001;-61
2021/11/27 03:35:07;;;;;;;;;;;;;;;0.03;52.95;92432.25;5063278;28;20381;-60
2021/11/27 03:37:33;;;;;;;;;;;;;;;0.35;61.85;92440.53;5063402;28;20079;-61
2021/11/27 03:39:58;;;;;;;;;;;;;;;-1.44;58.10;92443.72;5063531;28;20398;-61
2021/11/27 03:42:23;;;;;;;;;;;;;;;-1.28;62.56;92447.94;5063207;28;19995;-60
2021/11/27 03:44:48;;;;;;;;;;;;;;;0.01;58.28;92444.75;5063386;28;20063;-61
2021/11/27 03:47:14;;;;;;;;;;;;;;;-0.60;62.46;92442.44;5062818;28;20030;-61
2021/11/27 03:49:39;;;;;;;;;;;;;;;-0.25;61.95;92440.91;5047814;28;20304;-61
2021/11/27 03:52:04;;;;;;;;;;;;;;;-0.09;54.99;92451.13;5063059;28;19969;-61
2021/11/27 03:54:30;;;;;;;;;;;;;;;-1.22;57.23;92448.00;5062651;28;19993;-60
2021/11/27 03:56:55;;;;;;;;;;;;;;;-0.78;56.68;92452.53;5053722;28;20160;-60
2021/11/27 03:59:21;;;;;;;;;;;;;;;-0.06;64.75;92445.50;5046837;28;20557;-59
2021/11/27 04:01:46;;;;;;;;;;;;;;;0.29;61.17;92451.75;5063241;28;20140;-61
2021/11/27 04:04:12;;;;;;;;;;;;;;;0.48;60.53;92455.47;5062668;28;20269;-60
2021/11/27 04:06:37;;;;;;;;;;;;;;;-0.98;55.56;92474.00;5062754;28;20016;-60
2021/11/27 04:09:06;;;;;;;;;;;;;;;0.24;58.06;92462.78;5062751;28;19977;-59
2021/11/27 04:11:32;;;;;;;;;;;;;;;0.17;62.98;92464.59;5062448;28;20040;-59
2021/11/27 04:13:57;;;;;;;;;;;;;;;-0.25;54.57;92459.22;5062489;28;20393;-60
2021/11/27 04:16:23;;;;;;;;;;;;;;;0.10;60.57;92459.28;5062168;28;19979;-59
2021/11/27 04:18:48;;;;;;;;;;;;;;;0.64;61.36;92464.00;5062509;28;20003;-61
2021/11/27 04:21:14;;;;;;;;;;;;;;;1.02;58.51;92460.97;5062221;28;20008;-60
2021/11/27 04:23:40;;;;;;;;;;;;;;;1.04;59.77;92464.19;5049522;28;19979;-60
2021/11/27 04:26:05;;;;;;;;;;;;;;;1.24;60.72;92463.44;5060553;28;20517;-60
2021/11/27 04:28:31;;;;;;;;;;;;;;;1.21;52.25;92467.28;5061062;28;19999;-60
2021/11/27 04:30:56;;;;;;;;;;;;;;;1.27;54.82;92468.31;5062078;28;19988;-61
2021/11/27 04:33:21;;;;;;;;;;;;;;;1.34;60.01;92476.19;5062150;28;20447;-60
2021/11/27 04:35:46;;;;;;;;;;;;;;;1.34;57.22;92482.25;5062423;28;19965;-60
2021/11/27 04:38:12;;;;;;;;;;;;;;;1.45;52.66;92475.59;5061817;28;20242;-60
2021/11/27 04:40:37;;;;;;;;;;;;;;;1.63;58.30;92479.47;5062323;28;19975;-61
2021/11/27 04:43:02;;;;;;;;;;;;;;;1.67;59.33;92480.69;5062536;28;20239;-61
2021/11/27 04:45:28;;;;;;;;;;;;;;;0.97;50.29;92479.91;5062021;28;19988;-60
2021/11/27 04:47:53;;;;;;;;;;;;;;;1.33;59.84;92487.69;5062070;28;20132;-61
2021/11/27 04:50:19;;;;;;;;;;;;;;;1.37;55.97;92481.81;5061642;28;19993;-61
2021/11/27 04:52:44;;;;;;;;;;;;;;;1.44;59.02;92494.16;5062249;28;19972;-61
2021/11/27 04:55:10;;;;;;;;;;;;;;;1.52;56.58;92496.59;5061783;28;20028;-61
2021/11/27 04:57:35;;;;;;;;;;;;;;;1.65;56.03;92492.41;5061754;28;20027;-61
2021/11/27 05:00:00;;;;;;;;;;;;;;;1.47;58.58;92501.63;5061414;28;19968;-61
2021/11/27 05:02:26;;;;;;;;;;;;;;;1.30;58.07;92499.34;5045485;28;20046;-61
2021/11/27 05:04:51;;;;;;;;;;;;;;;1.42;57.91;92507.44;5059033;28;20350;-61
2021/11/27 05:07:16;;;;;;;;;;;;;;;1.54;57.79;92505.09;5061759;28;19993;-61
2021/11/27 05:09:41;;;;;;;;;;;;;;;0.75;53.72;92508.00;5061621;28;20818;-60
2021/11/27 05:12:07;;;;;;;;;;;;;;;1.34;59.67;92516.31;5061833;28;20386;-60
2021/11/27 05:14:32;;;;;;;;;;;;;;;0.69;53.26;92516.63;5061618;28;20380;-61
2021/11/27 05:16:57;;;;;;;;;;;;;;;0.81;60.85;92520.31;5061951;28;20586;-60
2021/11/27 05:19:22;;;;;;;;;;;;;;;1.06;58.35;92524.28;5061612;28;19988;-59
2021/11/27 05:21:48;;;;;;;;;;;;;;;1.04;54.17;92526.25;5061609;28;19980;-61
2021/11/27 05:24:13;;;;;;;;;;;;;;;1.37;50.85;92522.97;5061917;28;20337;-61
2021/11/27 05:26:38;;;;;;;;;;;;;;;0.74;52.39;92529.94;5061275;28;20354;-61
2021/11/27 05:29:03;;;;;;;;;;;;;;;1.15;53.13;92532.75;5048262;28;20087;-60
2021/11/27 05:31:29;;;;;;;;;;;;;;;0.68;56.72;92533.34;5061296;28;20255;-60
2021/11/27 05:36:30;;;;;;;;;;;;;;;0.16;62.10;92536.19;5061581;28;19972;-61
2021/11/27 05:38:55;;;;;;;;;;;;;;;0.81;59.97;92543.91;5046091;28;20034;-61
2021/11/27 05:41:20;;;;;;;;;;;;;;;1.14;60.21;92547.69;5041489;28;19997;-60
2021/11/27 05:43:45;;;;;;;;;;;;;;;1.26;52.48;92540.06;5041630;28;20206;-61
2021/11/27 05:46:11;;;;;;;;;;;;;;;1.46;57.44;92539.31;5041181;28;20076;-61
2021/11/27 05:48:36;;;;;;;;;;;;;;;1.54;53.07;92547.06;5042011;28;20238;-61
2021/11/27 05:51:01;;;;;;;;;;;;;;;0.58;51.86;92544.19;5041741;28;20024;-60
2021/11/27 05:53:27;;;;;;;;;;;;;;;0.99;52.58;92550.44;5041271;28;20390;-60
2021/11/27 05:55:52;;;;;;;;;;;;;;;1.21;52.18;92552.94;5041252;28;19980;-61
2021/11/27 05:58:17;;;;;;;;;;;;;;;0.81;55.09;92551.75;5040611;28;20076;-60
2021/11/27 06:00:43;;;;;;;;;;;;;;;1.07;51.57;92552.91;5041951;28;20071;-61
2021/11/27 06:03:09;;;;;;;;;;;;;;;0.98;50.91;92562.72;5039593;28;20080;-61
2021/11/27 06:05:34;;;;;;;;;;;;;;;1.02;51.33;92557.91;5037877;28;19985;-59
2021/11/27 06:07:59;;;;;;;;;;;;;;;0.92;51.62;92554.84;5035652;28;20060;-57
2021/11/27 06:10:24;;;;;;;;;;;;;;;0.09;58.28;92564.94;5040922;28;20405;-59
2021/11/27 06:12:50;;;;;;;;;;;;;;;0.68;53.90;92564.78;5041518;28;20331;-61
2021/11/27 06:15:15;;;;;;;;;;;;;;;0.58;55.42;92563.28;5035701;28;20023;-60
2021/11/27 06:17:40;;;;;;;;;;;;;;;0.63;54.32;92567.16;5040676;28;20031;-59
2021/11/27 06:20:06;;;;;;;;;;;;;;;-0.07;54.02;92574.66;5045673;28;20055;-61
2021/11/27 06:22:31;;;;;;;;;;;;;;;0.06;52.45;92573.16;5039081;28;20294;-61
2021/11/27 06:24:56;;;;;;;;;;;;;;;0.00;54.43;92577.31;5045495;28;20286;-60
2021/11/27 06:27:22;;;;;;;;;;;;;;;0.41;52.94;92572.44;5041586;28;20031;-60
2021/11/27 06:29:48;;;;;;;;;;;;;;;0.51;57.20;92574.72;5033484;28;20082;-60
2021/11/27 06:32:14;;;;;;;;;;;;;;;0.67;52.14;92577.06;5044818;28;19973;-60
2021/11/27 06:34:39;;;;;;;;;;;;;;;0.46;52.80;92585.78;5044584;28;20000;-62
2021/11/27 06:37:05;;;;;;;;;;;;;;;0.26;54.06;92588.22;5044382;28;19969;-61
2021/11/27 06:39:30;;;;;;;;;;;;;;;0.79;52.08;92594.84;5045011;28;19980;-60
2021/11/27 06:41:56;;;;;;;;;;;;;;;0.90;51.66;92594.31;5030663;28;19993;-61
2021/11/27 06:44:21;;;;;;;;;;;;;;;0.90;54.17;92591.72;5044777;28;20015;-60
2021/11/27 06:46:47;;;;;;;;;;;;;;;1.07;51.21;92589.59;5044276;28;20015;-60
2021/11/27 06:49:14;;;;;;;;;;;;;;;1.03;50.31;92606.69;5044337;28;20410;-60
2021/11/27 06:51:39;;;;;;;;;;;;;;;0.80;52.46;92599.09;5044361;28;19996;-61
2021/11/27 06:54:04;;;;;;;;;;;;;;;0.76;51.06;92606.53;5043178;28;20485;-61
2021/11/27 06:56:29;;;;;;;;;;;;;;;0.16;54.07;92620.75;5043012;28;19974;-60
2021/11/27 06:58:55;;;;;;;;;;;;;;;0.14;53.56;92614.09;5034946;28;20370;-61
2021/11/27 07:01:20;;;;;;;;;;;;;;;0.43;52.53;92621.00;5042109;28;20349;-61
2021/11/27 07:03:45;;;;;;;;;;;;;;;0.39;52.96;92622.38;5043855;28;20066;-61
2021/11/27 07:06:10;;;;;;;;;;;;;;;0.52;52.82;92626.91;5043222;28;19992;-60
2021/11/27 07:08:36;;;;;;;;;;;;;;;-0.66;54.88;92633.13;5043967;28;19993;-61
2021/11/27 07:11:01;;;;;;;;;;;;;;;-0.51;53.80;92636.53;5043167;28;20275;-61
2021/11/27 07:13:26;;;;;;;;;;;;;;;0.15;54.54;92634.03;5043221;28;20029;-61
2021/11/27 07:15:51;;;;;;;;;;;;;;;0.47;54.18;92637.13;5043821;28;19977;-60
2021/11/27 07:18:17;;;;;;;;;;;;;;;0.05;55.18;92637.78;5034206;28;19997;-61
2021/11/27 07:20:42;;;;;;;;;;;;;;;0.52;56.22;92641.78;5040237;28;20158;-60
2021/11/27 07:23:09;;;;;;;;;;;;;;;0.71;52.06;92643.75;5038977;28;20020;-61
2021/11/27 07:25:34;;;;;;;;;;;;;;;0.36;52.94;92645.47;5038585;28;20025;-61
2021/11/27 07:27:59;;;;;;;;;;;;;;;0.64;60.95;92649.94;5039161;28;20040;-61
2021/11/27 07:30:25;;;;;;;;;;;;;;;0.91;56.49;92647.50;5038751;28;20530;-60
2021/11/27 07:32:50;;;;;;;;;;;;;;;0.93;51.17;92661.25;5039942;28;20076;-61
2021/11/27 07:35:15;;;;;;;;;;;;;;;0.88;60.37;92668.88;5039884;28;19993;-61
2021/11/27 07:37:40;;;;;;;;;;;;;;;1.14;54.12;92672.66;5039339;28;19996;-61
2021/11/27 07:40:06;;;;;;;;;;;;;;;1.17;52.08;92672.28;5039527;28;20074;-62
2021/11/27 07:42:31;;;;;;;;;;;;;;;1.15;51.06;92674.28;5039409;28;20039;-60
2021/11/27 07:44:57;;;;;;;;;;;;;;;1.05;54.07;92683.28;5039639;28;20027;-60
2021/11/27 07:47:22;;;;;;;;;;;;;;;0.65;52.19;92686.41;5038611;28;20070;-61
2021/11/27 07:49:47;;;;;;;;;;;;;;;0.80;51.69;92698.63;5039106;28;20074;-61
2021/11/27 07:52:12;;;;;;;;;;;;;;;0.87;51.34;92701.28;5035664;28;19980;-60
2021/11/27 07:54:38;;;;;;;;;;;;;;;0.70;52.37;92704.19;5038543;28;20484;-61
2021/11/27 07:57:03;;;;;;;;;;;;;;;0.68;51.73;92706.19;5049195;28;19999;-62
2021/11/27 07:59:34;;;;;;;;;;;;;;;0.15;52.68;92710.72;5037164;28;19989;-60
2021/11/27 08:01:59;;;;;;;;;;;;;;;0.13;53.70;92704.03;5038593;28;20239;-60
2021/11/27 08:04:24;;;;;;;;;;;;;;;-0.23;54.61;92716.91;5036881;28;20362;-60
2021/11/27 08:06:49;;;;;;;;;;;;;;;0.00;53.73;92718.59;5038426;28;19985;-60
2021/11/27 08:09:15;;;;;;;;;;;;;;;0.18;52.86;92717.38;5037830;28;20253;-60
2021/11/27 08:11:40;;;;;;;;;;;;;;;0.03;53.51;92727.88;5038577;28;20043;-61
2021/11/27 08:14:05;;;;;;;;;;;;;;;-0.37;53.89;92726.38;5038219;28;20080;-62
2021/11/27 08:16:30;;;;;;;;;;;;;;;-0.80;55.00;92734.03;5038665;28;19980;-61
2021/11/27 08:18:56;;;;;;;;;;;;;;;-0.06;53.93;92733.22;5036903;28;20276;-62
2021/11/27 08:21:21;;;;;;;;;;;;;;;-0.38;54.24;92739.66;5037888;28;20000;-62
2021/11/27 08:23:47;;;;;;;;;;;;;;;-1.09;55.88;92744.22;5038219;28;19969;-62
2021/11/27 08:26:12;;;;;;;;;;;;;;;-1.22;56.86;92745.66;5037654;28;19997;-61
2021/11/27 08:28:38;;;;;;;;;;;;;;;-1.10;56.41;92743.44;5036924;28;20375;-61
2021/11/27 08:31:03;;;;;;;;;;;;;;;-1.11;56.66;92743.59;5038160;28;19997;-62
2021/11/27 08:33:28;;;;;;;;;;;;;;;-0.77;56.22;92746.75;5038164;28;20043;-60
2021/11/27 08:35:53;;;;;;;;;;;;;;;-0.64;55.23;92746.16;5037500;28;19973;-59
2021/11/27 08:38:19;;;;;;;;;;;;;;;-0.33;53.68;92747.78;5036698;28;19996;-59
2021/11/27 08:40:44;;;;;;;;;;;;;;;-0.31;53.08;92751.00;5031735;28;20020;-60
2021/11/27 08:43:10;;;;;;;;;;;;;;;-0.11;53.29;92763.53;5038146;28;20616;-59
2021/11/27 08:45:35;;;;;;;;;;;;;;;-0.39;52.76;92764.19;5037990;28;19996;-61
2021/11/27 08:48:01;;;;;;;;;;;;;;;-0.03;54.57;92760.00;5035780;28;19989;-61
2021/11/27 08:50:26;;;;;;;;;;;;;;;0.09;53.24;92761.16;5038253;28;19999;-61
2021/11/27 08:52:51;;;;;;;;;;;;;;;0.41;52.82;92758.31;5037786;28;19969;-61
2021/11/27 08:55:17;;;;;;;;;;;;;;;0.63;51.40;92766.16;5037396;28;20283;-62
2021/11/27 08:57:42;;;;;;;;;;;;;;;0.69;49.92;92775.91;5037235;28;20248;-61
2021/11/27 09:00:08;;;;;;;;;;;;;;;0.70;49.95;92770.47;5030105;28;19969;-62
2021/11/27 09:02:33;;;;;;;;;;;;;;;1.00;50.55;92773.94;5037634;28;19993;-62
2021/11/27 09:04:59;;;;;;;;;;;;;;;1.10;49.42;92777.06;5037816;28;20035;-62
2021/11/27 09:07:24;;;;;;;;;;;;;;;0.92;49.91;92777.53;5037331;28;20023;-62
2021/11/27 09:09:49;;;;;;;;;;;;;;;1.29;49.99;92782.66;5037189;28;19993;-62
2021/11/27 09:12:15;;;;;;;;;;;;;;;1.74;47.58;92777.13;5037613;28;20001;-61
2021/11/27 09:14:40;;;;;;;;;;;;;;;1.90;47.99;92783.06;5036370;28;20003;-62
2021/11/27 09:17:05;;;;;;;;;;;;;;;1.58;46.98;92799.22;5036968;28;19973;-62
2021/11/27 09:19:30;;;;;;;;;;;;;;;2.12;47.04;92795.06;5037884;28;20111;-62
2021/11/27 09:21:56;;;;;;;;;;;;;;;2.47;45.58;92798.66;5037268;28;20001;-61
2021/11/27 09:24:21;;;;;;;;;;;;;;;2.69;46.54;92803.78;5037884;28;19977;-60
2021/11/27 09:26:47;;;;;;;;;;;;;;;2.74;47.33;92809.25;5036569;28;20375;-62
2021/11/27 09:29:17;;;;;;;;;;;;;;;2.42;45.56;92817.66;5026945;28;20003;-62
2021/11/27 09:31:43;;;;;;;;;;;;;;;1.90;46.33;92827.69;5021705;28;20112;-62
2021/11/27 09:34:08;;;;;;;;;;;;;;;1.94;47.30;92829.72;5018179;28;20512;-62
2021/11/27 09:36:34;;;;;;;;;;;;;;;1.70;47.41;92842.28;5019376;28;19977;-60
2021/11/27 09:38:59;;;;;;;;;;;;;;;0.73;49.31;92853.09;5025647;28;19996;-62
2021/11/27 09:41:27;;;;;;;;;;;;;;;0.87;49.87;92851.44;5029596;28;19993;-62
2021/11/27 09:43:53;;;;;;;;;;;;;;;1.22;49.74;92853.34;5035329;28;19977;-61
2021/11/27 09:46:19;;;;;;;;;;;;;;;1.50;48.44;92850.00;5037560;28;20214;-62
2021/11/27 09:48:49;;;;;;;;;;;;;;;1.73;46.95;92854.19;5039314;28;20373;-62
2021/11/27 09:51:14;;;;;;;;;;;;;;;1.91;48.70;92855.53;5040652;28;19993;-61
2021/11/27 09:53:39;;;;;;;;;;;;;;;2.24;46.35;92860.16;5028585;28;20015;-62
2021/11/27 09:56:05;;;;;;;;;;;;;;;2.11;45.98;92856.47;5039455;28;19977;-62
2021/11/27 09:58:30;;;;;;;;;;;;;;;1.27;50.64;92866.72;5035103;28;20039;-62
2021/11/27 10:00:57;;;;;;;;;;;;;;;1.92;49.62;92863.22;5041435;28;20500;-62
2021/11/27 10:03:22;;;;;;;;;;;;;;;1.39;48.04;92864.41;5039177;28;20299;-62
2021/11/27 10:05:47;;;;;;;;;;;;;;;0.56;50.73;92876.06;5039535;28;19985;-62
2021/11/27 10:08:13;;;;;;;;;;;;;;;1.65;48.28;92877.94;5041214;28;19989;-62
2021/11/27 10:10:39;;;;;;;;;;;;;;;2.13;49.67;92875.47;5040177;28;20242;-62
2021/11/27 10:13:04;;;;;;;;;;;;;;;1.87;47.95;92878.72;5040162;28;20196;-62
2021/11/27 10:15:29;;;;;;;;;;;;;;;1.22;48.09;92882.19;5038972;28;20485;-62
2021/11/27 10:17:54;;;;;;;;;;;;;;;2.22;45.85;92880.56;5038369;28;19993;-62
2021/11/27 10:20:20;;;;;;;;;;;;;;;2.09;47.31;92891.78;5039587;28;19977;-62
2021/11/27 10:22:49;;;;;;;;;;;;;;;2.13;48.12;92879.91;5040080;28;20506;-62
2021/11/27 10:25:31;;;;;;;;;;;;;;;1.28;49.19;92878.00;5039021;28;19983;-62
2021/11/27 10:28:04;;;;;;;;;;;;;;;1.95;47.25;92885.63;5039357;28;19996;-62
2021/11/27 10:30:34;;;;;;;;;;;;;;;1.57;47.54;92879.69;5040050;28;19993;-62
2021/11/27 10:33:00;;;;;;;;;;;;;;;2.65;45.29;92867.22;5055682;28;20019;-62
2021/11/27 10:35:25;;;;;;;;;;;;;;;2.51;45.20;92868.16;5040451;28;20032;-62
2021/11/27 10:37:53;;;;;;;;;;;;;;;3.21;43.68;92869.00;5039912;28;20099;-61
2021/11/27 10:40:20;;;;;;;;;;;;;;;3.09;44.34;92874.84;5038824;28;20417;-61
2021/11/27 10:42:46;;;;;;;;;;;;;;;2.98;43.99;92883.28;5038249;28;19989;-62
2021/11/27 10:45:13;;;;;;;;;;;;;;;3.01;45.44;92888.16;5039970;28;20164;-61
2021/11/27 10:47:40;;;;;;;;;;;;;;;3.20;44.87;92889.22;5040270;28;19989;-62
2021/11/27 10:50:06;;;;;;;;;;;;;;;2.71;44.14;92888.44;5038286;28;20001;-60
2021/11/27 10:52:36;;;;;;;;;;;;;;;2.90;51.10;92898.22;5039687;28;19976;-61
2021/11/27 10:55:02;;;;;;;;;;;;;;;3.08;45.74;92889.00;5039384;28;19993;-61
2021/11/27 10:57:27;;;;;;;;;;;;;;;3.06;45.94;92900.72;5038014;28;19996;-62
2021/11/27 10:59:55;;;;;;;;;;;;;;;3.27;49.31;92902.38;5036542;28;19972;-61
2021/11/27 11:02:22;;;;;;;;;;;;;;;3.22;46.84;92899.53;5039310;28;20238;-62
2021/11/27 11:05:14;;;;;;;;;;;;;;;3.28;45.67;92896.94;5033293;28;19995;-61
2021/11/27 11:07:40;;;;;;;;;;;;;;;3.41;43.43;92901.38;5053952;28;20000;-61
2021/11/27 11:10:08;;;;;;;;;;;;;;;3.23;44.09;92901.16;5058877;28;20000;-62
2021/11/27 11:12:41;;;;;;;;;;;;;;;2.86;44.92;92904.88;5059506;28;20107;-62
2021/11/27 11:15:07;;;;;;;;;;;;;;;2.99;44.28;92909.38;5059523;28;19993;-62
2021/11/27 11:17:32;;;;;;;;;;;;;;;3.05;44.24;92910.41;5054039;28;20087;-62
2021/11/27 11:20:10;;;;;;;;;;;;;;;2.81;43.82;92915.19;5059111;28;20071;-62
2021/11/27 11:22:35;;;;;;;;;;;;;;;3.02;48.06;92905.53;5058531;28;19988;-62
2021/11/27 11:25:05;;;;;;;;;;;;;;;3.43;51.37;92912.53;5059086;28;19995;-62
2021/11/27 11:27:31;;;;;;;;;;;;;;;3.66;44.84;92914.00;5058164;28;20001;-62
2021/11/27 11:29:56;;;;;;;;;;;;;;;2.82;45.84;92918.63;5058833;28;19989;-62
2021/11/27 11:32:21;;;;;;;;;;;;;;;3.24;47.43;92923.81;5059603;28;19977;-62
2021/11/27 11:34:47;;;;;;;;;;;;;;;3.10;45.39;92930.88;5059366;28;19984;-63
2021/11/27 11:37:13;;;;;;;;;;;;;;;3.54;42.58;92926.16;5058492;28;20534;-62
2021/11/27 11:39:38;;;;;;;;;;;;;;;3.71;42.25;92931.00;5059259;28;20302;-62
2021/11/27 11:42:04;;;;;;;;;;;;;;;3.32;44.40;92926.25;5041568;28;20457;-62
2021/11/27 11:44:29;;;;;;;;;;;;;;;3.56;43.01;92934.63;5034968;28;19973;-62
2021/11/27 11:46:54;;;;;;;;;;;;;;;3.68;44.36;92933.03;5032644;28;20602;-62
2021/11/27 11:49:19;;;;;;;;;;;;;;;4.53;41.91;92932.56;5028222;28;19999;-61
2021/11/27 11:51:45;;;;;;;;;;;;;;;4.90;39.62;92932.84;5039505;28;20092;-62
2021/11/27 11:54:10;;;;;;;;;;;;;;;4.97;40.47;92933.66;5039106;28;20452;-63
2021/11/27 11:56:37;;;;;;;;;;;;;;;4.79;39.80;92930.88;5039150;28;20338;-63
2021/11/27 11:59:18;;;;;;;;;;;;;;;4.57;39.98;92941.69;5037397;28;20031;-63
2021/11/27 12:01:43;;;;;;;;;;;;;;;3.63;42.01;92948.63;5038816;28;20529;-63
2021/11/27 12:04:20;;;;;;;;;;;;;;;2.86;42.97;92952.19;5039247;28;20047;-63
2021/11/27 12:06:45;;;;;;;;;;;;;;;3.06;43.81;92956.72;5038184;28;19989;-63
2021/11/27 12:09:11;;;;;;;;;;;;;;;2.83;44.05;92964.94;5038886;28;20347;-63
2021/11/27 12:11:46;;;;;;;;;;;;;;;2.92;48.08;92969.00;5037154;28;20026;-63
2021/11/27 12:14:20;;;;;;;;;;;;;;;2.62;46.38;92967.44;5037861;28;20046;-63
2021/11/27 12:17:04;;;;;;;;;;;;;;;1.66;54.13;92974.81;5038456;28;20078;-61
2021/11/27 12:19:38;;;;;;;;;;;;;;;1.95;46.78;92974.88;5036245;28;20002;-62
2021/11/27 12:22:22;;;;;;;;;;;;;;;2.78;45.22;92965.50;5037297;28;19999;-62
2021/11/27 12:25:06;;;;;;;;;;;;;;;1.44;47.29;92976.59;5035467;28;20330;-62
2021/11/27 12:27:32;;;;;;;;;;;;;;;1.66;46.20;92974.81;5033092;28;19925;-62
2021/11/27 12:30:15;;;;;;;;;;;;;;;1.65;46.98;92977.63;5033953;28;20376;-62
2021/11/27 12:32:42;;;;;;;;;;;;;;;2.31;44.30;92978.38;5034572;28;19925;-60
2021/11/27 12:35:25;;;;;;;;;;;;;;;1.06;45.59;92981.00;5030173;28;20398;-62
2021/11/27 12:37:51;;;;;;;;;;;;;;;1.54;45.68;92974.50;5043545;28;20260;-59
2021/11/27 12:40:39;;;;;;;;;;;;;;;2.62;42.85;92972.69;5057039;28;20388;-60
2021/11/27 12:43:08;;;;;;;;;;;;;;;4.75;37.80;92964.75;5030726;28;20457;-61
2021/11/27 12:45:34;;;;;;;;;;;;;;;5.72;35.35;92960.50;5037872;28;19989;-62
2021/11/27 12:48:00;;;;;;;;;;;;;;;9.64;30.28;92943.81;5038525;28;19985;-63
2021/11/27 12:50:25;;;;;;;;;;;;;;;11.49;31.30;92948.66;5037208;28;20389;-62
2021/11/27 12:52:51;;;;;;;;;;;;;;;11.04;27.10;92958.47;5027778;28;19978;-63